createdAt,value
2022-12-26T00:01:09.666Z,75.26
2022-12-26T00:03:38.140Z,75.45
2022-12-26T00:06:14.492Z,75.52
2022-12-26T00:08:43.036Z,75.50
2022-12-26T00:11:10.967Z,76.05
2022-12-26T00:13:41.677Z,75.76
2022-12-26T00:16:19.481Z,76.07
2022-12-26T00:18:47.196Z,75.85
2022-12-26T00:21:16.777Z,75.83
2022-12-26T00:23:44.130Z,76.37
2022-12-26T00:26:17.769Z,77.42
2022-12-26T00:28:45.749Z,76.44
2022-12-26T00:31:18.379Z,76.67
2022-12-26T00:33:46.008Z,76.74
2022-12-26T00:36:28.124Z,76.10
2022-12-26T00:38:56.355Z,75.79
2022-12-26T00:41:23.748Z,75.82
2022-12-26T00:43:51.210Z,75.29
2022-12-26T00:46:19.570Z,75.57
2022-12-26T00:48:47.398Z,74.63
2022-12-26T00:51:15.699Z,75.68
2022-12-26T00:53:43.503Z,75.74
2022-12-26T00:56:11.109Z,76.38
2022-12-26T00:58:38.176Z,77.04
2022-12-26T01:01:20.000Z,77.64
2022-12-26T01:03:49.054Z,77.14
2022-12-26T01:06:17.660Z,76.89
2022-12-26T01:08:45.051Z,76.02
2022-12-26T01:11:15.267Z,75.95
2022-12-26T01:13:42.955Z,76.16
2022-12-26T01:16:10.338Z,76.06
2022-12-26T01:18:37.365Z,76.61
2022-12-26T01:21:10.221Z,76.29
2022-12-26T01:23:38.487Z,75.91
2022-12-26T01:26:18.263Z,76.90
2022-12-26T01:28:48.356Z,76.36
2022-12-26T01:31:16.148Z,76.26
2022-12-26T01:33:43.070Z,76.36
2022-12-26T01:36:10.701Z,76.24
2022-12-26T01:38:37.876Z,75.96
2022-12-26T01:41:17.667Z,76.07
2022-12-26T01:44:01.465Z,76.78
2022-12-26T01:46:45.565Z,75.91
2022-12-26T01:49:43.476Z,76.25
2022-12-26T01:52:23.860Z,76.61
2022-12-26T01:54:54.838Z,76.47
2022-12-26T01:57:33.658Z,76.62
2022-12-26T02:00:03.907Z,76.45
2022-12-26T02:02:51.889Z,76.11
2022-12-26T02:05:34.604Z,76.05
2022-12-26T02:08:23.161Z,76.09
2022-12-26T02:11:08.360Z,75.96
2022-12-26T02:13:40.553Z,75.29
2022-12-26T02:16:13.891Z,75.34
2022-12-26T02:18:41.621Z,75.02
2022-12-26T02:21:41.188Z,76.00
2022-12-26T02:25:08.065Z,75.82
2022-12-26T02:28:07.673Z,75.77
2022-12-26T02:31:00.586Z,76.35
2022-12-26T02:33:40.674Z,76.41
2022-12-26T02:36:54.373Z,76.66
2022-12-26T02:39:44.030Z,75.03
2022-12-26T02:42:35.869Z,74.53
2022-12-26T02:46:05.157Z,75.13
2022-12-26T02:49:53.744Z,75.35
2022-12-26T02:52:55.914Z,75.45
2022-12-26T02:55:47.872Z,76.25
2022-12-26T02:58:44.356Z,76.43
2022-12-26T03:02:01.221Z,75.58
2022-12-26T03:04:53.668Z,75.68
2022-12-26T03:07:52.054Z,75.87
2022-12-26T03:10:42.806Z,75.79
2022-12-26T03:13:24.200Z,75.66
2022-12-26T03:16:17.895Z,75.25
2022-12-26T03:18:58.860Z,74.81
2022-12-26T03:21:41.169Z,75.22
2022-12-26T03:24:13.252Z,75.56
2022-12-26T03:26:50.497Z,75.65
2022-12-26T03:29:40.921Z,75.24
2022-12-26T03:32:12.748Z,74.69
2022-12-26T03:34:44.956Z,75.36
2022-12-26T03:37:51.068Z,75.18
2022-12-26T03:41:07.375Z,76.03
2022-12-26T03:44:17.357Z,75.30
2022-12-26T03:47:25.464Z,75.01
2022-12-26T03:50:20.067Z,74.74
2022-12-26T03:53:50.224Z,75.64
2022-12-26T03:56:48.561Z,75.17
2022-12-26T03:59:48.201Z,75.80
2022-12-26T04:02:37.765Z,74.75
2022-12-26T04:05:27.679Z,75.01
2022-12-26T04:08:20.748Z,74.85
2022-12-26T04:11:14.093Z,74.52
2022-12-26T04:14:22.971Z,74.61
2022-12-26T04:17:21.470Z,74.38
2022-12-26T04:20:05.600Z,74.10
2022-12-26T04:23:13.751Z,74.44
2022-12-26T04:26:20.846Z,74.26
2022-12-26T04:29:06.761Z,74.32
2022-12-26T04:32:00.924Z,75.07
2022-12-26T04:35:06.845Z,75.59
2022-12-26T04:37:55.169Z,75.85
2022-12-26T04:40:48.201Z,74.99
2022-12-26T04:43:49.977Z,75.43
2022-12-26T04:46:23.894Z,74.96
2022-12-26T04:49:13.673Z,74.81
2022-12-26T04:51:40.919Z,74.29
2022-12-26T04:54:07.999Z,74.59
2022-12-26T04:56:35.949Z,74.58
2022-12-26T04:59:03.494Z,74.24
2022-12-26T05:01:49.861Z,74.46
2022-12-26T05:04:37.701Z,74.63
2022-12-26T05:07:33.592Z,74.83
2022-12-26T05:10:00.952Z,74.02
2022-12-26T05:12:28.256Z,74.34
2022-12-26T05:14:55.356Z,73.60
2022-12-26T05:17:41.067Z,73.31
2022-12-26T05:20:30.926Z,73.51
2022-12-26T05:23:21.091Z,73.98
2022-12-26T05:26:07.402Z,73.93
2022-12-26T05:28:44.072Z,73.66
2022-12-26T05:31:17.432Z,73.87
2022-12-26T05:34:04.383Z,73.78
2022-12-26T05:36:51.594Z,74.01
2022-12-26T05:39:19.762Z,74.17
2022-12-26T05:41:46.906Z,73.46
2022-12-26T05:44:14.219Z,73.43
2022-12-26T05:46:42.655Z,73.02
2022-12-26T05:49:10.407Z,72.94
2022-12-26T05:51:37.500Z,72.60
2022-12-26T05:54:05.158Z,72.75
2022-12-26T05:56:32.063Z,74.34
2022-12-26T05:59:01.709Z,73.32
2022-12-26T06:01:30.593Z,73.27
2022-12-26T06:04:00.239Z,73.73
2022-12-26T06:06:28.101Z,73.17
2022-12-26T06:08:57.089Z,73.94
2022-12-26T06:11:26.758Z,72.21
2022-12-26T06:13:55.371Z,73.87
2022-12-26T06:16:22.850Z,73.30
2022-12-26T06:18:50.134Z,73.61
2022-12-26T06:21:21.254Z,73.68
2022-12-26T06:23:50.444Z,73.24
2022-12-26T06:26:17.848Z,72.84
2022-12-26T06:28:46.735Z,73.21
2022-12-26T06:31:21.488Z,72.66
2022-12-26T06:33:54.382Z,72.41
2022-12-26T06:36:25.141Z,72.82
2022-12-26T06:38:53.200Z,72.86
2022-12-26T06:41:23.424Z,72.50
2022-12-26T06:43:52.002Z,72.95
2022-12-26T06:46:22.911Z,72.92
2022-12-26T06:48:50.480Z,72.14
2022-12-26T06:51:22.926Z,72.44
2022-12-26T06:53:52.094Z,72.27
2022-12-26T06:56:23.821Z,71.34
2022-12-26T06:58:56.353Z,71.69
2022-12-26T07:01:26.134Z,71.43
2022-12-26T07:03:54.807Z,71.23
2022-12-26T07:06:21.881Z,71.01
2022-12-26T07:08:49.210Z,71.30
2022-12-26T07:11:20.922Z,71.83
2022-12-26T07:13:48.091Z,70.55
2022-12-26T07:16:15.791Z,71.46
2022-12-26T07:18:43.356Z,70.39
2022-12-26T07:21:14.706Z,71.05
2022-12-26T07:23:42.686Z,71.20
2022-12-26T07:26:10.334Z,71.07
2022-12-26T07:28:38.512Z,70.66
2022-12-26T07:31:06.427Z,70.94
2022-12-26T07:33:34.628Z,70.47
2022-12-26T07:36:05.184Z,69.47
2022-12-26T07:38:35.342Z,69.81
2022-12-26T07:41:22.466Z,69.86
2022-12-26T07:43:49.393Z,70.04
2022-12-26T07:46:16.813Z,69.55
2022-12-26T07:48:43.918Z,71.05
2022-12-26T07:51:11.564Z,70.62
2022-12-26T07:53:38.728Z,69.82
2022-12-26T07:56:06.546Z,70.87
2022-12-26T07:58:33.471Z,70.73
2022-12-26T08:01:02.492Z,69.66
2022-12-26T08:03:29.773Z,69.67
2022-12-26T08:05:57.728Z,69.99
2022-12-26T08:08:24.775Z,70.51
2022-12-26T08:11:03.219Z,69.98
2022-12-26T08:13:30.855Z,70.22
2022-12-26T08:15:58.979Z,69.59
2022-12-26T08:18:26.610Z,69.58
2022-12-26T08:20:53.848Z,70.15
2022-12-26T08:23:20.739Z,70.34
2022-12-26T08:25:48.020Z,69.50
2022-12-26T08:28:15.154Z,70.08
2022-12-26T08:30:43.157Z,68.86
2022-12-26T08:33:11.928Z,69.29
2022-12-26T08:35:40.178Z,70.45
2022-12-26T08:38:07.490Z,69.54
2022-12-26T08:40:43.601Z,69.52
2022-12-26T08:43:31.914Z,69.51
2022-12-26T08:46:05.887Z,69.38
2022-12-26T08:48:34.778Z,68.97
2022-12-26T08:51:06.852Z,69.52
2022-12-26T08:53:35.845Z,68.97
2022-12-26T08:56:06.929Z,69.00
2022-12-26T08:58:35.317Z,69.44
2022-12-26T09:01:15.041Z,68.87
2022-12-26T09:03:42.942Z,68.65
2022-12-26T09:06:13.582Z,68.82
2022-12-26T09:08:42.594Z,68.90
2022-12-26T09:11:23.509Z,68.95
2022-12-26T09:13:50.701Z,68.48
2022-12-26T09:16:27.435Z,69.72
2022-12-26T09:18:59.706Z,69.43
2022-12-26T09:21:28.806Z,68.74
2022-12-26T09:24:01.978Z,69.33
2022-12-26T09:26:30.164Z,68.40
2022-12-26T09:28:57.801Z,68.17
2022-12-26T09:31:31.579Z,68.69
2022-12-26T09:34:01.184Z,68.56
2022-12-26T09:36:35.321Z,67.99
2022-12-26T09:39:02.603Z,68.36
2022-12-26T09:42:08.710Z,68.16
2022-12-26T09:44:35.699Z,68.01
2022-12-26T09:47:40.425Z,68.51
2022-12-26T09:50:14.993Z,68.16
2022-12-26T09:53:05.239Z,68.50
2022-12-26T09:55:51.450Z,68.53
2022-12-26T09:58:31.558Z,68.04
2022-12-26T10:01:11.627Z,68.01
2022-12-26T10:03:47.782Z,68.01
2022-12-26T10:06:34.089Z,68.33
2022-12-26T10:09:38.196Z,67.92
2022-12-26T10:12:05.058Z,67.68
2022-12-26T10:14:55.838Z,67.33
2022-12-26T10:17:44.601Z,67.23
2022-12-26T10:20:39.998Z,68.06
2022-12-26T10:23:47.574Z,68.17
2022-12-26T10:26:23.121Z,67.24
2022-12-26T10:29:15.371Z,67.04
2022-12-26T10:31:58.425Z,67.91
2022-12-26T10:34:45.535Z,67.77
2022-12-26T10:37:40.801Z,67.71
2022-12-26T10:40:25.055Z,68.07
2022-12-26T10:43:20.598Z,67.42
2022-12-26T10:46:15.539Z,67.83
2022-12-26T10:48:42.876Z,67.64
2022-12-26T10:51:10.189Z,66.77
2022-12-26T10:53:45.802Z,67.15
2022-12-26T10:56:16.482Z,67.10
2022-12-26T10:58:47.486Z,67.27
2022-12-26T11:01:52.943Z,67.91
2022-12-26T11:05:02.190Z,68.00
2022-12-26T11:07:13.164Z,66.94
2022-12-26T11:09:45.828Z,67.35
2022-12-26T11:12:50.167Z,67.39
2022-12-26T11:15:37.805Z,67.18
2022-12-26T11:18:28.045Z,67.35
2022-12-26T11:20:55.346Z,67.87
2022-12-26T11:23:27.078Z,67.24
2022-12-26T11:25:58.730Z,67.35
2022-12-26T11:28:37.495Z,68.05
2022-12-26T11:31:08.023Z,68.18
2022-12-26T11:33:46.654Z,67.69
2022-12-26T11:36:16.934Z,67.91
2022-12-26T11:39:05.221Z,67.33
2022-12-26T11:41:42.538Z,67.42
2022-12-26T11:44:35.988Z,67.49
2022-12-26T11:47:17.289Z,67.82
2022-12-26T11:50:12.125Z,67.29
2022-12-26T11:52:57.518Z,67.71
2022-12-26T11:55:24.819Z,67.58
2022-12-26T11:58:10.378Z,67.99
2022-12-26T12:01:07.205Z,67.84
2022-12-26T12:03:48.546Z,67.13
2022-12-26T12:06:34.435Z,67.60
2022-12-26T12:09:07.358Z,67.37
2022-12-26T12:12:05.806Z,67.58
2022-12-26T12:15:30.537Z,67.91
2022-12-26T12:18:41.332Z,67.88
2022-12-26T12:21:36.579Z,68.08
2022-12-26T12:24:18.993Z,68.13
2022-12-26T12:27:09.437Z,68.01
2022-12-26T12:30:01.655Z,67.88
2022-12-26T12:33:06.029Z,67.90
2022-12-26T12:36:11.710Z,68.26
2022-12-26T12:39:15.271Z,68.57
2022-12-26T12:42:06.287Z,68.84
2022-12-26T12:44:56.854Z,68.94
2022-12-26T12:47:26.784Z,69.32
2022-12-26T12:49:53.938Z,69.34
2022-12-26T12:52:49.313Z,69.59
2022-12-26T12:55:41.410Z,70.17
2022-12-26T12:58:23.434Z,70.70
2022-12-26T13:01:29.385Z,71.10
2022-12-26T13:04:22.635Z,71.53
2022-12-26T13:06:57.385Z,71.62
2022-12-26T13:09:31.807Z,71.56
2022-12-26T13:12:08.383Z,71.49
2022-12-26T13:14:59.772Z,71.52
2022-12-26T13:17:45.965Z,72.14
2022-12-26T13:20:27.325Z,71.68
2022-12-26T13:23:23.103Z,71.75
2022-12-26T13:26:16.525Z,71.92
2022-12-26T13:29:20.560Z,71.83
2022-12-26T13:31:48.041Z,71.76
2022-12-26T13:34:20.064Z,71.57
2022-12-26T13:36:52.431Z,71.76
2022-12-26T13:39:28.022Z,72.18
2022-12-26T13:42:37.368Z,72.06
2022-12-26T13:45:37.312Z,72.38
2022-12-26T13:48:16.164Z,72.07
2022-12-26T13:50:56.187Z,72.30
2022-12-26T13:53:59.674Z,71.81
2022-12-26T13:56:26.762Z,72.29
2022-12-26T13:59:26.155Z,72.15
2022-12-26T14:02:14.641Z,71.54
2022-12-26T14:05:52.406Z,71.14
2022-12-26T14:08:34.348Z,70.83
2022-12-26T14:11:44.335Z,70.39
2022-12-26T14:14:59.748Z,70.85
2022-12-26T14:18:00.744Z,70.66
2022-12-26T14:20:51.916Z,70.91
2022-12-26T14:23:47.197Z,70.66
2022-12-26T14:26:52.946Z,71.35
2022-12-26T14:29:51.058Z,71.52
2022-12-26T14:32:53.489Z,71.29
2022-12-26T14:35:39.640Z,71.84
2022-12-26T14:38:52.823Z,72.10
2022-12-26T14:41:39.345Z,72.37
2022-12-26T14:44:22.012Z,71.82
2022-12-26T14:46:48.871Z,71.68
2022-12-26T14:49:35.897Z,71.75
2022-12-26T14:52:24.974Z,71.97
2022-12-26T14:54:53.973Z,71.46
2022-12-26T14:57:50.680Z,71.27
2022-12-26T15:00:20.882Z,71.72
2022-12-26T15:03:01.645Z,71.62
2022-12-26T15:05:39.219Z,71.83
2022-12-26T15:08:46.149Z,71.30
2022-12-26T15:11:39.533Z,71.66
2022-12-26T15:14:49.481Z,71.45
2022-12-26T15:17:45.602Z,71.79
2022-12-26T15:20:44.451Z,71.55
2022-12-26T15:23:49.300Z,71.79
2022-12-26T15:26:33.197Z,71.99
2022-12-26T15:29:21.065Z,71.76
2022-12-26T15:32:03.912Z,71.85
2022-12-26T15:35:14.590Z,71.98
2022-12-26T15:38:34.138Z,71.97
2022-12-26T15:41:31.760Z,71.87
2022-12-26T15:44:38.680Z,72.10
2022-12-26T15:47:44.408Z,72.17
2022-12-26T15:50:43.620Z,72.48
2022-12-26T15:53:41.601Z,72.32
2022-12-26T15:57:01.670Z,72.46
2022-12-26T16:00:10.074Z,72.13
2022-12-26T16:02:48.080Z,72.12
2022-12-26T16:05:52.425Z,71.98
2022-12-26T16:08:31.553Z,72.68
2022-12-26T16:11:10.916Z,72.47
2022-12-26T16:13:51.116Z,72.25
2022-12-26T16:16:35.604Z,72.18
2022-12-26T16:19:18.732Z,72.20
2022-12-26T16:22:23.241Z,72.34
2022-12-26T16:24:52.362Z,71.97
2022-12-26T16:27:24.124Z,72.21
2022-12-26T16:30:11.400Z,71.96
2022-12-26T16:32:43.261Z,72.55
2022-12-26T16:35:26.605Z,72.41
2022-12-26T16:37:58.108Z,71.92
2022-12-26T16:40:30.913Z,72.33
2022-12-26T16:43:22.120Z,72.42
2022-12-26T16:45:54.722Z,72.05
2022-12-26T16:48:26.066Z,72.20
2022-12-26T16:51:07.457Z,71.99
2022-12-26T16:53:40.571Z,72.37
2022-12-26T16:56:31.162Z,72.43
2022-12-26T16:59:12.632Z,72.36
2022-12-26T17:01:54.699Z,71.81
2022-12-26T17:04:26.687Z,72.25
2022-12-26T17:07:06.848Z,71.90
2022-12-26T17:09:49.798Z,72.36
2022-12-26T17:12:39.599Z,71.95
2022-12-26T17:15:08.258Z,72.14
2022-12-26T17:17:38.584Z,72.02
2022-12-26T17:20:24.567Z,72.42
2022-12-26T17:22:57.232Z,72.04
2022-12-26T17:25:33.797Z,72.13
2022-12-26T17:28:23.174Z,71.83
2022-12-26T17:30:53.435Z,72.05
2022-12-26T17:33:27.440Z,71.86
2022-12-26T17:39:24.869Z,71.51
2022-12-26T17:42:00.271Z,71.59
2022-12-26T17:44:34.623Z,71.94
2022-12-26T17:47:28.634Z,72.03
2022-12-26T17:49:57.151Z,71.45
2022-12-26T17:52:30.172Z,71.70
2022-12-26T17:54:58.547Z,72.01
2022-12-26T17:57:29.066Z,72.16
2022-12-26T17:59:57.489Z,71.71
2022-12-26T18:02:25.075Z,71.80
2022-12-26T18:04:52.550Z,72.11
2022-12-26T18:07:31.123Z,71.76
2022-12-26T18:10:01.938Z,72.39
2022-12-26T18:12:29.411Z,72.12
2022-12-26T18:15:01.662Z,71.87
2022-12-26T18:17:33.543Z,72.21
2022-12-26T18:20:01.971Z,71.94
2022-12-26T18:22:29.246Z,72.46
2022-12-26T18:24:56.183Z,72.43
2022-12-26T18:27:30.916Z,72.20
2022-12-26T18:29:59.147Z,72.33
2022-12-26T18:32:33.946Z,72.42
2022-12-26T18:35:01.285Z,72.79
2022-12-26T18:37:30.692Z,72.50
2022-12-26T18:39:57.606Z,73.14
2022-12-26T18:42:26.307Z,72.78
2022-12-26T18:44:53.231Z,73.09
2022-12-26T18:47:22.478Z,72.62
2022-12-26T18:49:50.157Z,72.49
2022-12-26T18:52:18.137Z,72.12
2022-12-26T18:54:45.480Z,72.60
2022-12-26T18:57:20.261Z,72.52
2022-12-26T18:59:48.338Z,72.72
2022-12-26T19:02:19.177Z,72.54
2022-12-26T19:04:48.629Z,72.71
2022-12-26T19:07:20.489Z,72.76
2022-12-26T19:09:54.926Z,72.59
2022-12-26T19:12:24.541Z,72.36
2022-12-26T19:14:52.504Z,73.02
2022-12-26T19:17:19.759Z,73.52
2022-12-26T19:19:47.866Z,73.44
2022-12-26T19:22:15.046Z,72.99
2022-12-26T19:24:41.977Z,72.60
2022-12-26T19:27:09.149Z,72.88
2022-12-26T19:29:36.192Z,72.91
2022-12-26T19:32:04.394Z,73.02
2022-12-26T19:34:31.445Z,73.08
2022-12-26T19:36:58.902Z,72.84
2022-12-26T19:39:26.775Z,73.18
2022-12-26T19:41:53.979Z,72.92
2022-12-26T19:44:20.925Z,73.31
2022-12-26T19:46:48.156Z,73.47
2022-12-26T19:49:15.207Z,73.53
2022-12-26T19:51:42.437Z,73.86
2022-12-26T19:54:09.381Z,73.39
2022-12-26T19:56:36.653Z,73.29
2022-12-26T19:59:04.011Z,73.48
2022-12-26T20:01:33.147Z,73.31
2022-12-26T20:04:04.151Z,73.25
2022-12-26T20:06:35.585Z,72.95
2022-12-26T20:09:09.444Z,72.83
2022-12-26T20:11:44.263Z,72.99
2022-12-26T20:14:16.714Z,72.72
2022-12-26T20:17:05.035Z,72.43
2022-12-26T20:19:31.659Z,72.53
2022-12-26T20:21:58.870Z,72.46
2022-12-26T20:24:25.994Z,72.33
2022-12-26T20:26:53.256Z,72.00
2022-12-26T20:29:20.468Z,71.83
2022-12-26T20:31:47.827Z,71.66
2022-12-26T20:34:14.841Z,72.09
2022-12-26T20:36:42.134Z,72.17
2022-12-26T20:39:17.320Z,72.53
2022-12-26T20:41:45.829Z,73.33
2022-12-26T20:44:14.786Z,74.51
2022-12-26T20:46:43.539Z,73.35
2022-12-26T20:49:11.256Z,73.00
2022-12-26T20:51:41.917Z,73.57
2022-12-26T20:54:12.173Z,74.04
2022-12-26T20:56:40.465Z,74.88
2022-12-26T20:59:08.080Z,75.61
2022-12-26T21:01:37.627Z,76.20
2022-12-26T21:04:05.604Z,77.09
2022-12-26T21:06:36.490Z,76.80
2022-12-26T21:09:06.666Z,76.89
2022-12-26T21:11:39.134Z,77.47
2022-12-26T21:14:13.102Z,77.37
2022-12-26T21:16:54.112Z,77.32
2022-12-26T21:19:23.698Z,77.34
2022-12-26T21:21:54.686Z,77.72
2022-12-26T21:24:31.878Z,77.38
2022-12-26T21:26:59.422Z,77.44
2022-12-26T21:29:30.641Z,78.21
2022-12-26T21:31:59.617Z,78.02
2022-12-26T21:34:30.641Z,77.76
2022-12-26T21:37:17.449Z,78.18
2022-12-26T21:39:45.337Z,78.53
2022-12-26T21:42:12.589Z,78.23
2022-12-26T21:44:39.728Z,78.85
2022-12-26T21:47:10.192Z,78.56
2022-12-26T21:49:37.762Z,78.85
2022-12-26T21:52:07.154Z,78.71
2022-12-26T21:54:53.163Z,79.18
2022-12-26T21:57:21.597Z,79.10
2022-12-26T21:59:58.466Z,78.36
2022-12-26T22:02:53.945Z,78.55
2022-12-26T22:05:25.021Z,78.61
2022-12-26T22:07:58.430Z,78.20
2022-12-26T22:10:49.475Z,78.78
2022-12-26T22:13:18.321Z,78.20
2022-12-26T22:16:03.865Z,77.72
2022-12-26T22:18:43.018Z,77.00
2022-12-26T22:21:13.911Z,77.96
2022-12-26T22:23:43.276Z,77.90
2022-12-26T22:26:14.215Z,77.66
2022-12-26T22:28:42.493Z,76.92
2022-12-26T22:31:23.929Z,76.69
2022-12-26T22:34:01.520Z,76.95
2022-12-26T22:36:30.324Z,77.02
2022-12-26T22:38:59.385Z,76.95
2022-12-26T22:41:27.911Z,77.32
2022-12-26T22:43:55.815Z,77.91
2022-12-26T22:46:23.086Z,78.08
2022-12-26T22:48:50.724Z,78.12
2022-12-26T22:51:24.565Z,77.21
2022-12-26T22:53:57.177Z,78.02
2022-12-26T22:56:24.666Z,77.78
2022-12-26T22:58:57.422Z,78.31
2022-12-26T23:01:24.519Z,78.34
2022-12-26T23:03:51.822Z,78.44
2022-12-26T23:06:32.526Z,78.13
2022-12-26T23:09:04.176Z,78.69
2022-12-26T23:11:35.872Z,78.73
2022-12-26T23:14:05.841Z,78.63
2022-12-26T23:16:41.513Z,78.30
2022-12-26T23:20:00.140Z,78.44
2022-12-26T23:22:27.697Z,78.37
2022-12-26T23:24:54.866Z,77.84
2022-12-26T23:27:40.319Z,77.95
2022-12-26T23:30:20.319Z,78.29
2022-12-26T23:32:53.541Z,77.56
2022-12-26T23:35:22.784Z,77.67
2022-12-26T23:37:50.538Z,77.69
2022-12-26T23:40:20.309Z,77.56
2022-12-26T23:42:47.514Z,77.35
2022-12-26T23:45:15.707Z,77.52
2022-12-26T23:47:45.965Z,77.52
2022-12-26T23:50:15.617Z,77.58
2022-12-26T23:52:44.159Z,78.05
2022-12-26T23:55:11.820Z,78.07
2022-12-26T23:57:38.989Z,78.02
